Arcadia, NE

11:18 AM CDT on October 01, 2014 (GMT -0500)
Sharp | Change Station
CLOSE
Current Station
Airport
Location: Ord,
Elevation: 2070 ft
Nearby Weather Stations

Elev 2070 ft 41.62 °N, 98.95 °W | Updated 25 minutes ago

Scattered Clouds
Scattered Clouds
70 °F
Feels Like 70 °F
N
5
Wind Variable Wind from NNW

Today
High -- | Low -- °F
--% Chance of Precip.
Yesterday
High -- | Low -- °F
Precip. -- in
7:32 AM 7:17 PM
Waxing Crescent, 49% visible
Pressure 29.75 in
Visibility 10.0 miles
Clouds Scattered Clouds 12000 ft
Dew Point 51 °F
Humidity 51%
Rainfall 0.00 in
Snow Depth Not available.
UV 3 out of 12
Pollen 3.60 out of 12
Air Quality Not available.
Flu Activity Not available.
METAR KODX 011553Z AUTO 34004KT 10SM SCT120 21/11 A2977 RMK AO2 SLP074 T02110106

More Conditions Fewer Conditions

Pressure 29.75 in
Visibility 10.0 miles
Clouds Scattered Clouds 12000 ft
Dew Point 51 °F
Humidity 51%
Rainfall 0.00 in
Snow Depth Not available.
UV 3 out of 12
Pollen 3.60 out of 12
Air Quality Not available.
Flu Activity Not available.
METAR KODX 011553Z AUTO 34004KT 10SM SCT120 21/11 A2977 RMK AO2 SLP074 T02110106

More Conditions Fewer Conditions

10-Day Weather Forecast

Almanac

Astronomy

Oct. 01, 2014 Rise Set
Actual Time 7:32 AM CDT 7:17 PM CDT
Civil Twilight 7:05 AM CDT 7:45 PM CDT
Nautical Twilight 6:33 AM CDT 8:17 PM CDT
Astronomical Twilight 6:00 AM CDT 8:49 PM CDT
Moon 2:38 PM CDT No Moon Set
Length of Visible Light 12h 40m
Length of Day
11h 44m
Tomorrow will be 2m 45s shorter.
Waxing Crescent, 49% of the Moon is Illuminated
Today
Waxing Crescent
Oct 1
First Quarter
Oct 8
Full
Oct 15
Last Quarter
Oct 23
New

Today's Extremes

State Highs State Lows

Community

WunderPhotos

Upload Photos

1,757,976 photos uploaded!

WunderBlogs® & News

Nearby

Snow Depth

Station Depth Elevation
No new snow has been reported.

Earthquake Activity

City Distance Mag. Time & Date
No recent earthquake activity has been reported nearby.
Minimum magnitude displayed is 2.5.

Coastal Water Temperatures

Place Temperature
No Stations Reporting

Nearby Weather Stations